createdAt,value
2018-11-02T00:00:40.942Z,100353.45
2018-11-02T00:03:09.054Z,100349.05
2018-11-02T00:05:36.715Z,100357.75
2018-11-02T00:08:04.181Z,100355.16
2018-11-02T00:10:31.611Z,100362.09
2018-11-02T00:12:59.295Z,100363.05
2018-11-02T00:15:26.821Z,100366.14
2018-11-02T00:17:54.296Z,100380.89
2018-11-02T00:20:21.726Z,100378.23
2018-11-02T00:22:49.145Z,100377.82
2018-11-02T00:25:16.586Z,100379.23
2018-11-02T00:27:44.030Z,100387.72
2018-11-02T00:30:11.458Z,100391.02
2018-11-02T00:32:38.898Z,100389.45
2018-11-02T00:35:06.383Z,100395.48
2018-11-02T00:37:33.917Z,100402.05
2018-11-02T00:40:01.373Z,100404.77
2018-11-02T00:42:28.822Z,100399.08
2018-11-02T00:44:56.258Z,100396.72
2018-11-02T00:47:23.697Z,100400.50
2018-11-02T00:49:51.133Z,100396.84
2018-11-02T00:52:18.558Z,100394.47
2018-11-02T00:54:46.168Z,100395.95
2018-11-02T00:57:13.592Z,100404.42
2018-11-02T00:59:41.042Z,100402.58
2018-11-02T01:02:08.482Z,100421.02
2018-11-02T01:04:35.961Z,100415.49
2018-11-02T01:07:03.348Z,100411.45
2018-11-02T01:09:30.788Z,100411.26
2018-11-02T01:11:58.215Z,100412.95
2018-11-02T01:14:25.633Z,100428.53
2018-11-02T01:16:53.224Z,100427.66
2018-11-02T01:19:24.875Z,100429.69
2018-11-02T01:21:52.294Z,100428.47
2018-11-02T01:24:19.757Z,100423.17
2018-11-02T01:26:47.197Z,100429.22
2018-11-02T01:29:14.650Z,100423.52
2018-11-02T01:31:42.168Z,100436.52
2018-11-02T01:34:09.590Z,100432.63
2018-11-02T01:36:37.019Z,100443.48
2018-11-02T01:39:04.473Z,100438.27
2018-11-02T01:41:31.883Z,100431.53
2018-11-02T01:43:59.375Z,100442.06
2018-11-02T01:46:26.798Z,100442.04
2018-11-02T01:48:54.230Z,100449.03
2018-11-02T01:51:21.686Z,100448.81
2018-11-02T01:53:49.114Z,100445.80
2018-11-02T01:56:16.650Z,100453.21
2018-11-02T01:58:44.159Z,100447.40
2018-11-02T02:01:11.751Z,100450.73
2018-11-02T02:03:39.290Z,100456.11
2018-11-02T02:06:06.733Z,100464.83
2018-11-02T02:08:34.280Z,100466.30
2018-11-02T02:11:01.710Z,100463.82
2018-11-02T02:13:29.130Z,100463.33
2018-11-02T02:15:56.563Z,100458.02
2018-11-02T02:18:23.991Z,100457.34
2018-11-02T02:20:51.546Z,100457.47
2018-11-02T02:23:18.985Z,100459.83
2018-11-02T02:25:46.431Z,100455.73
2018-11-02T02:28:13.884Z,100464.75
2018-11-02T02:30:41.322Z,100452.58
2018-11-02T02:33:08.750Z,100455.34
2018-11-02T02:35:36.182Z,100454.47
2018-11-02T02:38:03.634Z,100449.81
2018-11-02T02:40:31.109Z,100455.61
2018-11-02T02:42:58.555Z,100463.77
2018-11-02T02:45:25.995Z,100462.41
2018-11-02T02:47:53.422Z,100461.11
2018-11-02T02:50:20.851Z,100462.88
2018-11-02T02:52:48.280Z,100455.00
2018-11-02T02:55:15.732Z,100475.80
2018-11-02T02:57:43.166Z,100468.64
2018-11-02T03:00:12.486Z,100471.20
2018-11-02T03:02:40.122Z,100478.27
2018-11-02T03:05:07.600Z,100483.34
2018-11-02T03:07:34.993Z,100483.01
2018-11-02T03:10:02.421Z,100490.30
2018-11-02T03:12:29.855Z,100489.84
2018-11-02T03:14:57.298Z,100493.28
2018-11-02T03:17:24.795Z,100484.06
2018-11-02T03:19:52.398Z,100481.49
2018-11-02T03:22:20.258Z,100493.75
2018-11-02T03:24:47.721Z,100514.13
2018-11-02T03:27:15.190Z,100511.85
2018-11-02T03:29:42.799Z,100516.72
2018-11-02T03:32:10.223Z,100518.64
2018-11-02T03:34:37.677Z,100525.37
2018-11-02T03:37:05.114Z,100534.12
2018-11-02T03:39:32.548Z,100539.98
2018-11-02T03:41:59.969Z,100543.94
2018-11-02T03:44:27.399Z,100544.16
2018-11-02T03:46:54.822Z,100545.80
2018-11-02T03:49:22.261Z,100547.17
2018-11-02T03:51:49.768Z,100551.64
2018-11-02T03:54:17.234Z,100544.05
2018-11-02T03:56:44.754Z,100541.14
2018-11-02T03:59:12.523Z,100549.80
2018-11-02T04:01:39.900Z,100547.47
2018-11-02T04:04:07.335Z,100550.67
2018-11-02T04:06:34.769Z,100561.33
2018-11-02T04:09:02.222Z,100554.14
2018-11-02T04:11:29.745Z,100554.27
2018-11-02T04:13:57.175Z,100555.19
2018-11-02T04:16:24.619Z,100554.12
2018-11-02T04:18:52.104Z,100565.05
2018-11-02T04:21:19.530Z,100576.53
2018-11-02T04:23:46.954Z,100583.45
2018-11-02T04:26:14.426Z,100584.96
2018-11-02T04:28:41.846Z,100585.10
2018-11-02T04:31:09.341Z,100587.36
2018-11-02T04:33:37.055Z,100597.19
2018-11-02T04:36:04.479Z,100592.53
2018-11-02T04:38:31.913Z,100589.47
2018-11-02T04:40:59.350Z,100583.98
2018-11-02T04:43:26.786Z,100595.47
2018-11-02T04:45:54.209Z,100593.81
2018-11-02T04:48:21.642Z,100599.33
2018-11-02T04:50:49.095Z,100594.45
2018-11-02T04:53:16.517Z,100593.44
2018-11-02T04:55:43.954Z,100601.64
2018-11-02T04:58:11.382Z,100603.07
2018-11-02T05:00:38.813Z,100596.78
2018-11-02T05:03:06.239Z,100598.45
2018-11-02T05:05:33.682Z,100601.53
2018-11-02T05:08:01.118Z,100610.69
2018-11-02T05:10:28.548Z,100614.16
2018-11-02T05:12:55.990Z,100624.18
2018-11-02T05:15:23.401Z,100630.19
2018-11-02T05:17:50.837Z,100635.36
2018-11-02T05:20:18.262Z,100630.12
2018-11-02T05:22:45.746Z,100636.75
2018-11-02T05:25:13.168Z,100639.98
2018-11-02T05:27:40.605Z,100643.19
2018-11-02T05:30:08.186Z,100650.48
2018-11-02T05:32:35.678Z,100653.69
2018-11-02T05:35:03.179Z,100657.14
2018-11-02T05:37:30.609Z,100657.45
2018-11-02T05:39:58.038Z,100659.23
2018-11-02T05:42:25.476Z,100665.73
2018-11-02T05:44:53.015Z,100669.09
2018-11-02T05:47:20.719Z,100675.22
2018-11-02T05:49:48.358Z,100683.31
2018-11-02T05:52:15.789Z,100695.35
2018-11-02T05:54:43.233Z,100684.92
2018-11-02T05:57:10.946Z,100688.09
2018-11-02T05:59:38.430Z,100699.30
2018-11-02T06:02:05.874Z,100709.47
2018-11-02T06:04:33.289Z,100720.23
2018-11-02T06:07:00.888Z,100717.48
2018-11-02T06:09:28.539Z,100724.87
2018-11-02T06:11:55.962Z,100736.41
2018-11-02T06:14:23.398Z,100738.22
2018-11-02T06:16:51.087Z,100749.76
2018-11-02T06:19:18.485Z,100746.27
2018-11-02T06:21:45.962Z,100757.50
2018-11-02T06:24:13.456Z,100774.98
2018-11-02T06:26:40.902Z,100784.41
2018-11-02T06:29:08.333Z,100791.03
2018-11-02T06:31:35.797Z,100797.30
2018-11-02T06:34:03.341Z,100797.98
2018-11-02T06:36:30.779Z,100809.87
2018-11-02T06:38:58.300Z,100814.16
2018-11-02T06:41:25.656Z,100824.14
2018-11-02T06:43:53.086Z,100828.75
2018-11-02T06:46:20.818Z,100825.80
2018-11-02T06:48:48.257Z,100820.89
2018-11-02T06:51:15.689Z,100825.48
2018-11-02T06:53:43.110Z,100832.08
2018-11-02T06:56:10.548Z,100829.70
2018-11-02T06:58:37.990Z,100831.30
2018-11-02T07:01:05.450Z,100837.08
2018-11-02T07:03:32.905Z,100837.88
2018-11-02T07:06:00.346Z,100841.58
2018-11-02T07:08:27.805Z,100846.48
2018-11-02T07:10:55.205Z,100848.75
2018-11-02T07:13:22.637Z,100839.16
2018-11-02T07:15:50.069Z,100840.69
2018-11-02T07:18:17.905Z,100852.34
2018-11-02T07:20:45.409Z,100857.73
2018-11-02T07:23:12.787Z,100857.48
2018-11-02T07:25:40.193Z,100848.08
2018-11-02T07:28:07.797Z,100855.55
2018-11-02T07:30:35.227Z,100859.47
2018-11-02T07:33:02.662Z,100865.48
2018-11-02T07:35:30.090Z,100863.03
2018-11-02T07:37:57.544Z,100868.02
2018-11-02T07:40:24.969Z,100870.71
2018-11-02T07:42:52.471Z,100868.28
2018-11-02T07:45:19.933Z,100876.35
2018-11-02T07:47:47.467Z,100883.70
2018-11-02T07:50:14.770Z,100881.76
2018-11-02T07:52:42.609Z,100885.67
2018-11-02T07:55:10.430Z,100891.64
2018-11-02T07:57:38.000Z,100903.69
2018-11-02T08:00:05.490Z,100898.17
2018-11-02T08:02:32.952Z,100903.61
2018-11-02T08:05:00.389Z,100900.48
2018-11-02T08:07:27.825Z,100902.17
2018-11-02T08:09:55.265Z,100916.09
2018-11-02T08:12:23.645Z,100913.59
2018-11-02T08:14:51.167Z,100910.77
2018-11-02T08:17:18.642Z,100917.16
2018-11-02T08:19:46.096Z,100912.81
2018-11-02T08:22:13.545Z,100919.80
2018-11-02T08:24:41.065Z,100922.19
2018-11-02T08:27:08.422Z,100918.17
2018-11-02T08:29:35.873Z,100916.50
2018-11-02T08:32:03.338Z,100914.80
2018-11-02T08:34:30.762Z,100914.58
2018-11-02T08:36:58.247Z,100920.29
2018-11-02T08:39:25.689Z,100923.29
2018-11-02T08:41:53.124Z,100930.16
2018-11-02T08:44:20.590Z,100934.77
2018-11-02T08:46:48.035Z,100935.25
2018-11-02T08:49:15.504Z,100932.80
2018-11-02T08:51:42.959Z,100934.83
2018-11-02T08:54:10.391Z,100937.41
2018-11-02T08:56:37.850Z,100940.62
2018-11-02T08:59:05.375Z,100940.27
2018-11-02T09:01:32.786Z,100951.48
2018-11-02T09:04:00.246Z,100950.73
2018-11-02T09:06:27.678Z,100947.94
2018-11-02T09:08:55.139Z,100959.72
2018-11-02T09:11:22.579Z,100951.77
2018-11-02T09:13:50.028Z,100944.55
2018-11-02T09:16:17.518Z,100933.20
2018-11-02T09:18:44.983Z,100937.25
2018-11-02T09:21:12.411Z,100937.20
2018-11-02T09:23:39.860Z,100950.66
2018-11-02T09:26:07.519Z,100958.53
2018-11-02T09:28:34.991Z,100956.71
2018-11-02T09:31:02.461Z,100954.98
2018-11-02T09:33:29.923Z,100960.50
2018-11-02T09:35:57.379Z,100957.64
2018-11-02T09:38:24.842Z,100961.27
2018-11-02T09:40:52.282Z,100962.00
2018-11-02T09:43:19.748Z,100960.30
2018-11-02T09:45:47.277Z,100963.37
2018-11-02T09:48:14.719Z,100957.52
2018-11-02T09:50:42.158Z,100963.48
2018-11-02T09:53:09.784Z,100965.34
2018-11-02T09:55:37.218Z,100961.79
2018-11-02T09:58:04.660Z,100958.98
2018-11-02T10:00:32.110Z,100950.84
2018-11-02T10:02:59.557Z,100955.63
2018-11-02T10:05:26.990Z,100957.41
2018-11-02T10:07:54.484Z,100961.94
2018-11-02T10:10:21.930Z,100965.45
2018-11-02T10:12:49.387Z,100967.52
2018-11-02T10:15:16.925Z,100961.05
2018-11-02T10:17:44.522Z,100962.75
2018-11-02T10:20:12.308Z,100968.92
2018-11-02T10:22:39.954Z,100958.41
2018-11-02T10:25:07.845Z,100958.97
2018-11-02T10:27:35.290Z,100958.94
2018-11-02T10:30:02.795Z,100953.03
2018-11-02T10:32:30.282Z,100951.66
2018-11-02T10:34:57.780Z,100947.43
2018-11-02T10:37:25.213Z,100953.97
2018-11-02T10:39:52.673Z,100949.94
2018-11-02T10:42:20.110Z,100951.09
2018-11-02T10:44:47.610Z,100947.28
2018-11-02T10:47:15.002Z,100945.27
2018-11-02T10:49:42.453Z,100945.30
2018-11-02T10:52:09.898Z,100949.59
2018-11-02T10:54:37.480Z,100947.97
2018-11-02T10:57:05.127Z,100947.92
2018-11-02T10:59:32.611Z,100947.80
2018-11-02T11:02:05.582Z,100963.67
2018-11-02T11:04:33.031Z,100949.46
2018-11-02T11:07:00.471Z,100949.28
2018-11-02T11:09:28.030Z,100950.34
2018-11-02T11:11:55.516Z,100950.02
2018-11-02T11:14:22.950Z,100942.64
2018-11-02T11:16:50.471Z,100947.16
2018-11-02T11:19:17.912Z,100942.24
2018-11-02T11:21:45.347Z,100938.05
2018-11-02T11:24:12.806Z,100938.53
2018-11-02T11:26:40.243Z,100941.27
2018-11-02T11:29:08.126Z,100951.33
2018-11-02T11:31:36.031Z,100940.84
2018-11-02T11:34:03.503Z,100932.58
2018-11-02T11:36:30.944Z,100932.50
2018-11-02T11:38:58.378Z,100924.70
2018-11-02T11:41:25.818Z,100923.27
2018-11-02T11:43:53.531Z,100926.48
2018-11-02T11:46:21.065Z,100921.27
2018-11-02T11:48:48.671Z,100921.35
2018-11-02T11:51:15.934Z,100925.27
2018-11-02T11:53:43.375Z,100929.28
2018-11-02T11:56:10.802Z,100922.37
2018-11-02T11:58:38.238Z,100925.13
2018-11-02T12:01:05.759Z,100926.00
2018-11-02T12:03:33.195Z,100915.11
2018-11-02T12:06:00.675Z,100918.67
2018-11-02T12:08:28.126Z,100903.95
2018-11-02T12:10:55.646Z,100911.23
2018-11-02T12:13:23.081Z,100921.63
2018-11-02T12:15:50.541Z,100926.83
2018-11-02T12:18:17.957Z,100926.83
2018-11-02T12:20:45.399Z,100928.73
2018-11-02T12:23:12.886Z,100923.14
2018-11-02T12:25:40.342Z,100922.11
2018-11-02T12:28:07.909Z,100914.09
2018-11-02T12:30:35.355Z,100917.32
2018-11-02T12:33:02.811Z,100910.69
2018-11-02T12:35:30.278Z,100912.17
2018-11-02T12:37:57.715Z,100917.45
2018-11-02T12:40:25.297Z,100912.74
2018-11-02T12:42:53.676Z,100910.48
2018-11-02T12:45:21.914Z,100921.21
2018-11-02T12:47:49.618Z,100921.61
2018-11-02T12:50:18.288Z,100926.62
2018-11-02T12:52:46.430Z,100925.09
2018-11-02T12:55:14.451Z,100914.44
2018-11-02T12:57:42.299Z,100914.17
2018-11-02T13:00:10.237Z,100913.06
2018-11-02T13:02:37.670Z,100917.70
2018-11-02T13:05:05.109Z,100927.13
2018-11-02T13:07:32.555Z,100945.42
2018-11-02T13:10:00.062Z,100946.44
2018-11-02T13:12:28.198Z,100948.02
2018-11-02T13:14:55.698Z,100935.37
2018-11-02T13:17:23.178Z,100938.30
2018-11-02T13:19:50.596Z,100947.03
2018-11-02T13:22:18.098Z,100956.63
2018-11-02T13:24:45.458Z,100953.32
2018-11-02T13:27:13.011Z,100943.38
2018-11-02T13:29:40.599Z,100942.08
2018-11-02T13:32:08.066Z,100941.83
2018-11-02T13:34:35.522Z,100947.00
2018-11-02T13:37:03.011Z,100953.84
2018-11-02T13:39:30.411Z,100944.88
2018-11-02T13:41:57.846Z,100943.78
2018-11-02T13:44:25.312Z,100941.66
2018-11-02T13:46:52.770Z,100945.50
2018-11-02T13:49:20.257Z,100960.97
2018-11-02T13:51:47.704Z,100954.55
2018-11-02T13:54:15.106Z,100954.39
2018-11-02T13:56:42.557Z,100958.22
2018-11-02T13:59:10.021Z,100961.59
2018-11-02T14:01:37.435Z,100956.91
2018-11-02T14:04:04.895Z,100957.75
2018-11-02T14:06:32.326Z,100957.47
2018-11-02T14:08:59.755Z,100960.48
2018-11-02T14:11:27.230Z,100970.13
2018-11-02T14:13:54.664Z,100965.27
2018-11-02T14:16:22.178Z,100974.65
2018-11-02T14:18:49.630Z,100967.33
2018-11-02T14:21:17.068Z,100981.80
2018-11-02T14:23:44.503Z,100985.95
2018-11-02T14:26:11.955Z,100972.73
2018-11-02T14:28:39.651Z,100978.12
2018-11-02T14:31:07.215Z,100984.62
2018-11-02T14:33:34.650Z,100988.30
2018-11-02T14:36:02.114Z,100989.95
2018-11-02T14:38:29.546Z,100995.41
2018-11-02T14:40:57.038Z,100996.37
2018-11-02T14:43:24.431Z,100996.59
2018-11-02T14:45:51.878Z,101002.17
2018-11-02T14:48:19.316Z,101003.10
2018-11-02T14:50:46.803Z,101004.13
2018-11-02T14:53:14.246Z,101009.95
2018-11-02T14:55:41.938Z,101020.17
2018-11-02T14:58:09.371Z,101024.80
2018-11-02T15:00:36.822Z,101025.45
2018-11-02T15:03:04.254Z,101028.97
2018-11-02T15:05:31.726Z,101025.12
2018-11-02T15:07:59.150Z,101033.89
2018-11-02T15:10:26.594Z,101039.74
2018-11-02T15:12:54.026Z,101047.67
2018-11-02T15:15:21.461Z,101048.69
2018-11-02T15:17:48.899Z,101052.55
2018-11-02T15:20:16.383Z,101051.27
2018-11-02T15:22:43.812Z,101048.45
2018-11-02T15:25:11.282Z,101046.64
2018-11-02T15:27:38.862Z,101059.78
2018-11-02T15:30:06.295Z,101059.20
2018-11-02T15:32:33.738Z,101071.13
2018-11-02T15:35:01.806Z,101072.07
2018-11-02T15:37:29.251Z,101070.61
2018-11-02T15:39:56.693Z,101068.83
2018-11-02T15:42:24.178Z,101071.98
2018-11-02T15:44:51.626Z,101075.60
2018-11-02T15:47:19.115Z,101079.66
2018-11-02T15:49:46.552Z,101083.64
2018-11-02T15:52:14.041Z,101076.33
2018-11-02T15:54:41.481Z,101073.25
2018-11-02T15:57:08.994Z,101070.77
2018-11-02T15:59:36.433Z,101064.34
2018-11-02T16:02:03.982Z,101071.71
2018-11-02T16:04:31.406Z,101074.54
2018-11-02T16:06:58.924Z,101086.22
2018-11-02T16:09:26.297Z,101095.55
2018-11-02T16:11:53.748Z,101101.69
2018-11-02T16:14:21.296Z,101110.60
2018-11-02T16:16:48.714Z,101106.20
2018-11-02T16:19:16.169Z,101107.56
2018-11-02T16:21:43.654Z,101098.88
2018-11-02T16:24:11.644Z,101104.69
2018-11-02T16:26:39.366Z,101108.63
2018-11-02T16:29:06.907Z,101104.24
2018-11-02T16:31:34.373Z,101098.30
2018-11-02T16:34:02.072Z,101109.83
2018-11-02T16:36:29.467Z,101111.28
2018-11-02T16:38:57.040Z,101113.09
2018-11-02T16:41:24.511Z,101115.41
2018-11-02T16:43:51.997Z,101117.95
2018-11-02T16:46:19.518Z,101116.64
2018-11-02T16:48:46.950Z,101125.19
2018-11-02T16:51:14.431Z,101125.26
2018-11-02T16:53:41.934Z,101128.13
2018-11-02T16:56:09.374Z,101124.52
2018-11-02T16:58:36.829Z,101137.09
2018-11-02T17:01:04.286Z,101139.88
2018-11-02T17:03:31.715Z,101146.47
2018-11-02T17:05:59.227Z,101148.42
2018-11-02T17:08:26.640Z,101145.78
2018-11-02T17:10:54.101Z,101139.63
2018-11-02T17:13:21.547Z,101134.32
2018-11-02T17:15:49.114Z,101144.42
2018-11-02T17:18:16.617Z,101151.31
2018-11-02T17:20:44.059Z,101152.50
2018-11-02T17:23:11.490Z,101152.54
2018-11-02T17:25:38.950Z,101150.59
2018-11-02T17:28:06.397Z,101152.78
2018-11-02T17:30:34.059Z,101156.72
2018-11-02T17:33:01.520Z,101154.77
2018-11-02T17:35:29.018Z,101164.34
2018-11-02T17:37:56.511Z,101163.97
2018-11-02T17:40:23.946Z,101159.68
2018-11-02T17:42:51.403Z,101159.44
2018-11-02T17:45:18.852Z,101169.27
2018-11-02T17:47:46.427Z,101174.83
2018-11-02T17:50:14.550Z,101177.16
2018-11-02T17:52:42.099Z,101178.95
2018-11-02T17:55:09.553Z,101178.72
2018-11-02T17:57:37.121Z,101186.39
2018-11-02T18:00:04.565Z,101187.48
2018-11-02T18:02:32.018Z,101183.71
2018-11-02T18:04:59.511Z,101199.11
2018-11-02T18:07:27.082Z,101210.85
2018-11-02T18:09:54.567Z,101210.45
2018-11-02T18:12:22.128Z,101227.35
2018-11-02T18:14:49.477Z,101233.28
2018-11-02T18:17:16.926Z,101251.31
2018-11-02T18:19:44.476Z,101254.62
2018-11-02T18:22:12.010Z,101259.76
2018-11-02T18:24:39.391Z,101261.58
2018-11-02T18:27:06.867Z,101267.05
2018-11-02T18:29:34.321Z,101267.37
2018-11-02T18:32:01.783Z,101268.97
2018-11-02T18:34:29.962Z,101267.25
2018-11-02T18:36:57.400Z,101273.94
2018-11-02T18:39:24.835Z,101288.44
2018-11-02T18:41:52.296Z,101287.81
2018-11-02T18:44:19.872Z,101287.32
2018-11-02T18:46:47.317Z,101288.63
2018-11-02T18:49:14.787Z,101296.47
2018-11-02T18:51:42.237Z,101296.81
2018-11-02T18:54:10.119Z,101302.98
2018-11-02T18:56:37.565Z,101303.36
2018-11-02T18:59:05.037Z,101294.72
2018-11-02T19:01:32.469Z,101302.66
2018-11-02T19:03:59.913Z,101303.28
2018-11-02T19:06:27.358Z,101295.39
2018-11-02T19:08:54.777Z,101297.97
2018-11-02T19:11:22.318Z,101287.22
2018-11-02T19:13:49.765Z,101286.69
2018-11-02T19:16:17.193Z,101290.86
2018-11-02T19:18:44.638Z,101290.08
2018-11-02T19:21:12.337Z,101298.52
2018-11-02T19:23:39.765Z,101301.91
2018-11-02T19:26:07.214Z,101300.77
2018-11-02T19:28:34.646Z,101297.50
2018-11-02T19:31:02.078Z,101294.15
2018-11-02T19:33:29.527Z,101284.30
2018-11-02T19:35:57.000Z,101284.36
2018-11-02T19:38:24.451Z,101284.75
2018-11-02T19:40:51.887Z,101299.27
2018-11-02T19:43:19.389Z,101323.02
2018-11-02T19:45:46.814Z,101329.13
2018-11-02T19:48:14.246Z,101322.22
2018-11-02T19:50:41.733Z,101326.15
2018-11-02T19:53:09.207Z,101314.64
2018-11-02T19:55:36.643Z,101322.06
2018-11-02T19:58:04.079Z,101339.83
2018-11-02T20:00:31.513Z,101335.23
2018-11-02T20:02:59.006Z,101346.48
2018-11-02T20:05:26.467Z,101337.52
2018-11-02T20:07:53.937Z,101337.92
2018-11-02T20:10:21.357Z,101350.58
2018-11-02T20:12:49.142Z,101345.18
2018-11-02T20:15:17.097Z,101349.56
2018-11-02T20:17:44.660Z,101349.95
2018-11-02T20:20:13.073Z,101357.00
2018-11-02T20:22:40.515Z,101349.81
2018-11-02T20:25:07.986Z,101349.73
2018-11-02T20:27:35.473Z,101342.42
2018-11-02T20:30:02.905Z,101331.89
2018-11-02T20:32:30.434Z,101343.17
2018-11-02T20:34:57.809Z,101343.97
2018-11-02T20:37:25.263Z,101341.03
2018-11-02T20:39:52.837Z,101348.04
2018-11-02T20:42:20.278Z,101341.52
2018-11-02T20:44:47.797Z,101337.16
2018-11-02T20:47:15.534Z,101342.19
2018-11-02T20:49:42.962Z,101342.78
2018-11-02T20:52:10.392Z,101338.77
2018-11-02T20:54:37.899Z,101342.52
2018-11-02T20:57:05.332Z,101349.23
2018-11-02T20:59:32.834Z,101349.23
2018-11-02T21:02:00.241Z,101339.78
2018-11-02T21:04:27.686Z,101346.69
2018-11-02T21:06:55.126Z,101349.91
2018-11-02T21:09:22.757Z,101345.19
2018-11-02T21:11:50.002Z,101349.91
2018-11-02T21:14:17.488Z,101354.27
2018-11-02T21:16:44.870Z,101344.72
2018-11-02T21:19:12.313Z,101349.08
2018-11-02T21:21:39.738Z,101341.30
2018-11-02T21:24:07.194Z,101344.71
2018-11-02T21:26:34.598Z,101352.64
2018-11-02T21:29:02.071Z,101360.72
2018-11-02T21:31:29.486Z,101356.02
2018-11-02T21:33:57.056Z,101355.94
2018-11-02T21:36:24.961Z,101363.75
2018-11-02T21:38:52.473Z,101363.63
2018-11-02T21:41:19.862Z,101377.86
2018-11-02T21:43:47.291Z,101370.52
2018-11-02T21:46:14.893Z,101375.78
2018-11-02T21:48:42.311Z,101372.22
2018-11-02T21:51:09.742Z,101371.42
2018-11-02T21:53:37.341Z,101370.42
2018-11-02T21:56:04.707Z,101367.80
2018-11-02T21:58:32.199Z,101359.67
2018-11-02T22:00:59.617Z,101370.92
2018-11-02T22:03:27.086Z,101373.84
2018-11-02T22:05:54.697Z,101361.48
2018-11-02T22:08:22.067Z,101358.17
2018-11-02T22:10:49.515Z,101355.63
2018-11-02T22:13:16.957Z,101354.50
2018-11-02T22:15:44.378Z,101365.15
2018-11-02T22:18:11.806Z,101364.92
2018-11-02T22:20:39.233Z,101365.58
2018-11-02T22:23:06.674Z,101365.94
2018-11-02T22:25:34.110Z,101360.15
2018-11-02T22:28:01.536Z,101369.24
2018-11-02T22:30:28.996Z,101371.16
2018-11-02T22:32:56.503Z,101376.08
2018-11-02T22:35:24.022Z,101367.55
2018-11-02T22:37:51.529Z,101376.28
2018-11-02T22:40:18.986Z,101371.77
2018-11-02T22:42:46.437Z,101371.27
2018-11-02T22:45:14.810Z,101369.98
2018-11-02T22:47:44.795Z,101374.00
2018-11-02T22:50:13.014Z,101375.39
2018-11-02T22:52:40.437Z,101384.67
2018-11-02T22:55:07.998Z,101381.09
2018-11-02T22:57:35.427Z,101381.98
2018-11-02T23:00:02.982Z,101381.25
2018-11-02T23:02:30.411Z,101378.22
2018-11-02T23:04:57.923Z,101379.48
2018-11-02T23:07:25.351Z,101378.67
2018-11-02T23:09:52.782Z,101377.23
2018-11-02T23:12:20.231Z,101379.66
2018-11-02T23:14:47.657Z,101375.94
2018-11-02T23:17:15.144Z,101374.80
2018-11-02T23:19:42.538Z,101385.27
2018-11-02T23:22:09.961Z,101386.11
2018-11-02T23:24:37.393Z,101391.52
2018-11-02T23:27:04.838Z,101401.09
2018-11-02T23:29:32.371Z,101410.05
2018-11-02T23:31:59.772Z,101420.36
2018-11-02T23:34:27.217Z,101422.66
2018-11-02T23:36:54.697Z,101427.40
2018-11-02T23:39:22.118Z,101415.00
2018-11-02T23:41:49.566Z,101410.78
2018-11-02T23:44:17.013Z,101408.05
2018-11-02T23:46:44.438Z,101402.89
2018-11-02T23:49:11.866Z,101395.30
2018-11-02T23:51:39.321Z,101388.05
2018-11-02T23:54:06.759Z,101394.09
2018-11-02T23:56:34.205Z,101393.61
2018-11-02T23:59:01.700Z,101405.69
